createdAt,value
2019-05-18T00:00:26.410Z,805.24
2019-05-18T00:01:26.424Z,805.20
2019-05-18T00:02:26.433Z,805.21
2019-05-18T00:03:26.444Z,805.20
2019-05-18T00:04:26.458Z,805.21
2019-05-18T00:05:26.466Z,805.24
2019-05-18T00:06:26.492Z,805.20
2019-05-18T00:07:26.487Z,805.26
2019-05-18T00:08:26.496Z,805.19
2019-05-18T00:09:26.531Z,805.15
2019-05-18T00:10:26.516Z,805.18
2019-05-18T00:11:26.526Z,805.18
2019-05-18T00:12:26.538Z,805.20
2019-05-18T00:13:26.548Z,805.17
2019-05-18T00:14:26.561Z,805.20
2019-05-18T00:15:26.571Z,805.21
2019-05-18T00:16:26.586Z,805.21
2019-05-18T00:17:26.602Z,805.22
2019-05-18T00:18:26.600Z,805.23
2019-05-18T00:19:26.611Z,805.22
2019-05-18T00:20:26.627Z,805.23
2019-05-18T00:21:26.643Z,805.25
2019-05-18T00:22:26.649Z,805.26
2019-05-18T00:23:26.657Z,805.27
2019-05-18T00:24:26.668Z,805.27
2019-05-18T00:25:26.710Z,805.27
2019-05-18T00:26:26.696Z,805.24
2019-05-18T00:27:26.699Z,805.25
2019-05-18T00:28:26.715Z,805.26
2019-05-18T00:29:26.768Z,805.25
2019-05-18T00:30:26.734Z,805.24
2019-05-18T00:31:26.740Z,805.26
2019-05-18T00:32:26.754Z,805.26
2019-05-18T00:33:26.771Z,805.27
2019-05-18T00:34:26.774Z,805.28
2019-05-18T00:35:26.781Z,805.29
2019-05-18T00:36:26.795Z,805.28
2019-05-18T00:37:26.805Z,805.29
2019-05-18T00:38:26.811Z,805.29
2019-05-18T00:39:26.830Z,805.30
2019-05-18T00:40:26.842Z,805.29
2019-05-18T00:41:26.844Z,805.26
2019-05-18T00:42:26.860Z,805.27
2019-05-18T00:43:26.864Z,805.24
2019-05-18T00:44:26.877Z,805.26
2019-05-18T00:45:26.892Z,805.29
2019-05-18T00:46:26.913Z,805.27
2019-05-18T00:47:40.280Z,805.25
2019-05-18T00:48:26.916Z,805.27
2019-05-18T00:49:26.927Z,805.25
2019-05-18T00:50:26.937Z,805.26
2019-05-18T00:51:26.948Z,805.22
2019-05-18T00:52:26.959Z,805.24
2019-05-18T00:53:26.974Z,805.20
2019-05-18T00:54:26.983Z,805.15
2019-05-18T00:55:26.991Z,805.16
2019-05-18T00:56:27.002Z,805.17
2019-05-18T00:57:27.014Z,805.19
2019-05-18T00:58:27.025Z,805.17
2019-05-18T00:59:27.031Z,805.16
2019-05-18T01:00:27.041Z,805.16
2019-05-18T01:01:27.056Z,805.15
2019-05-18T01:02:27.068Z,805.15
2019-05-18T01:03:27.075Z,805.15
2019-05-18T01:04:27.089Z,805.12
2019-05-18T01:05:27.098Z,805.14
2019-05-18T01:06:27.107Z,805.13
2019-05-18T01:07:27.116Z,805.12
2019-05-18T01:08:27.129Z,805.12
2019-05-18T01:09:27.153Z,805.10
2019-05-18T01:10:27.144Z,805.10
2019-05-18T01:11:27.161Z,805.06
2019-05-18T01:12:27.168Z,805.07
2019-05-18T01:13:27.175Z,805.08
2019-05-18T01:14:27.190Z,805.06
2019-05-18T01:15:27.199Z,805.04
2019-05-18T01:16:27.209Z,805.09
2019-05-18T01:17:27.218Z,805.06
2019-05-18T01:18:27.231Z,805.11
2019-05-18T01:19:27.241Z,805.13
2019-05-18T01:20:27.250Z,805.10
2019-05-18T01:21:27.258Z,805.12
2019-05-18T01:22:27.271Z,805.09
2019-05-18T01:23:27.282Z,805.08
2019-05-18T01:24:27.288Z,805.09
2019-05-18T01:25:27.302Z,805.09
2019-05-18T01:26:27.311Z,805.09
2019-05-18T01:27:27.318Z,805.05
2019-05-18T01:28:27.334Z,805.07
2019-05-18T01:29:27.344Z,805.05
2019-05-18T01:30:27.350Z,805.03
2019-05-18T01:31:27.366Z,805.07
2019-05-18T01:32:27.376Z,805.09
2019-05-18T01:33:27.384Z,805.09
2019-05-18T01:34:27.395Z,805.11
2019-05-18T01:35:27.403Z,805.09
2019-05-18T01:36:27.415Z,805.06
2019-05-18T01:37:27.421Z,805.05
2019-05-18T01:38:27.437Z,805.07
2019-05-18T01:39:27.447Z,805.07
2019-05-18T01:40:27.458Z,805.05
2019-05-18T01:41:27.464Z,805.01
2019-05-18T01:42:27.477Z,805.03
2019-05-18T01:43:27.489Z,805.04
2019-05-18T01:44:27.493Z,805.02
2019-05-18T01:45:27.511Z,805.02
2019-05-18T01:46:27.517Z,805.05
2019-05-18T01:47:27.526Z,804.99
2019-05-18T01:48:27.534Z,805.02
2019-05-18T01:49:27.544Z,805.03
2019-05-18T01:50:27.563Z,805.04
2019-05-18T01:51:27.564Z,805.03
2019-05-18T01:52:27.577Z,805.04
2019-05-18T01:53:27.591Z,805.02
2019-05-18T01:54:27.600Z,804.98
2019-05-18T01:55:27.605Z,805.00
2019-05-18T01:56:27.615Z,804.94
2019-05-18T01:57:27.626Z,804.96
2019-05-18T01:58:27.640Z,804.95
2019-05-18T01:59:27.649Z,804.95
2019-05-18T02:00:27.655Z,804.95
2019-05-18T02:01:27.674Z,804.97
2019-05-18T02:02:27.680Z,804.97
2019-05-18T02:03:27.688Z,804.94
2019-05-18T02:04:27.696Z,804.94
2019-05-18T02:05:27.716Z,804.97
2019-05-18T02:06:27.720Z,804.96
2019-05-18T02:07:27.727Z,804.91
2019-05-18T02:08:27.745Z,804.92
2019-05-18T02:09:27.752Z,804.91
2019-05-18T02:10:27.764Z,804.91
2019-05-18T02:11:27.767Z,804.89
2019-05-18T02:12:27.780Z,804.87
2019-05-18T02:13:27.794Z,804.84
2019-05-18T02:14:27.800Z,804.88
2019-05-18T02:15:27.812Z,804.88
2019-05-18T02:16:27.818Z,804.87
2019-05-18T02:17:27.834Z,804.87
2019-05-18T02:18:29.357Z,804.90
2019-05-18T02:19:27.849Z,804.84
2019-05-18T02:20:27.857Z,804.87
2019-05-18T02:21:27.867Z,804.89
2019-05-18T02:22:27.885Z,804.87
2019-05-18T02:23:27.895Z,804.85
2019-05-18T02:24:27.899Z,804.86
2019-05-18T02:25:27.908Z,804.86
2019-05-18T02:26:27.920Z,804.87
2019-05-18T02:27:27.928Z,804.89
2019-05-18T02:28:27.938Z,804.89
2019-05-18T02:29:27.950Z,804.90
2019-05-18T02:30:27.961Z,804.87
2019-05-18T02:31:27.970Z,804.87
2019-05-18T02:32:27.979Z,804.87
2019-05-18T02:33:27.994Z,804.85
2019-05-18T02:34:28.009Z,804.90
2019-05-18T02:35:28.015Z,804.85
2019-05-18T02:36:28.026Z,804.90
2019-05-18T02:37:28.034Z,804.91
2019-05-18T02:38:28.046Z,804.90
2019-05-18T02:39:28.062Z,804.90
2019-05-18T02:40:28.061Z,804.91
2019-05-18T02:41:28.076Z,804.89
2019-05-18T02:42:30.690Z,804.88
2019-05-18T02:43:28.091Z,804.87
2019-05-18T02:44:28.102Z,804.87
2019-05-18T02:45:28.115Z,804.85
2019-05-18T02:46:28.121Z,804.85
2019-05-18T02:47:28.140Z,804.83
2019-05-18T02:48:28.142Z,804.86
2019-05-18T02:49:28.154Z,804.82
2019-05-18T02:50:28.162Z,804.84
2019-05-18T02:51:28.174Z,804.85
2019-05-18T02:52:28.184Z,804.85
2019-05-18T02:53:28.190Z,804.83
2019-05-18T02:54:28.211Z,804.80
2019-05-18T02:55:28.218Z,804.75
2019-05-18T02:56:28.224Z,804.77
2019-05-18T02:57:28.237Z,804.76
2019-05-18T02:58:28.248Z,804.78
2019-05-18T02:59:28.258Z,804.75
2019-05-18T03:00:28.276Z,804.80
2019-05-18T03:01:28.280Z,804.77
2019-05-18T03:02:28.282Z,804.77
2019-05-18T03:03:28.298Z,804.77
2019-05-18T03:04:28.308Z,804.76
2019-05-18T03:05:28.313Z,804.78
2019-05-18T03:06:28.328Z,804.78
2019-05-18T03:07:28.330Z,804.75
2019-05-18T03:08:28.350Z,804.76
2019-05-18T03:09:28.357Z,804.74
2019-05-18T03:10:28.368Z,804.73
2019-05-18T03:11:28.376Z,804.73
2019-05-18T03:12:28.387Z,804.74
2019-05-18T03:13:28.405Z,804.76
2019-05-18T03:14:28.405Z,804.73
2019-05-18T03:15:28.420Z,804.71
2019-05-18T03:16:28.427Z,804.72
2019-05-18T03:17:28.438Z,804.73
2019-05-18T03:18:28.469Z,804.72
2019-05-18T03:19:28.460Z,804.74
2019-05-18T03:20:28.471Z,804.75
2019-05-18T03:21:28.478Z,804.71
2019-05-18T03:22:28.487Z,804.75
2019-05-18T03:23:28.555Z,804.72
2019-05-18T03:24:28.507Z,804.70
2019-05-18T03:25:28.515Z,804.71
2019-05-18T03:26:28.526Z,804.68
2019-05-18T03:27:28.537Z,804.72
2019-05-18T03:28:28.559Z,804.65
2019-05-18T03:29:28.560Z,804.64
2019-05-18T03:30:28.574Z,804.64
2019-05-18T03:31:28.577Z,804.65
2019-05-18T03:32:28.589Z,804.67
2019-05-18T03:33:30.155Z,804.68
2019-05-18T03:34:28.605Z,804.66
2019-05-18T03:35:28.613Z,804.65
2019-05-18T03:36:28.624Z,804.62
2019-05-18T03:37:28.633Z,804.64
2019-05-18T03:38:28.650Z,804.63
2019-05-18T03:39:28.654Z,804.59
2019-05-18T03:40:28.665Z,804.61
2019-05-18T03:41:28.676Z,804.60
2019-05-18T03:42:28.686Z,804.61
2019-05-18T03:43:28.695Z,804.61
2019-05-18T03:44:28.705Z,804.61
2019-05-18T03:45:28.717Z,804.63
2019-05-18T03:46:28.779Z,804.64
2019-05-18T03:47:28.752Z,804.65
2019-05-18T03:48:28.751Z,804.66
2019-05-18T03:49:28.756Z,804.67
2019-05-18T03:50:28.767Z,804.62
2019-05-18T03:51:28.772Z,804.66
2019-05-18T03:52:28.789Z,804.64
2019-05-18T03:53:28.796Z,804.66
2019-05-18T03:54:28.823Z,804.62
2019-05-18T03:55:28.818Z,804.65
2019-05-18T03:56:28.835Z,804.60
2019-05-18T03:57:28.833Z,804.62
2019-05-18T03:58:28.846Z,804.63
2019-05-18T03:59:28.861Z,804.66
2019-05-18T04:00:28.866Z,804.65
2019-05-18T04:01:28.873Z,804.68
2019-05-18T04:02:28.896Z,804.64
2019-05-18T04:03:28.899Z,804.67
2019-05-18T04:04:28.904Z,804.67
2019-05-18T04:05:28.916Z,804.67
2019-05-18T04:06:28.928Z,804.64
2019-05-18T04:07:28.938Z,804.66
2019-05-18T04:08:28.947Z,804.68
2019-05-18T04:09:28.957Z,804.66
2019-05-18T04:10:28.968Z,804.65
2019-05-18T04:11:28.971Z,804.64
2019-05-18T04:12:28.987Z,804.65
2019-05-18T04:13:28.995Z,804.68
2019-05-18T04:14:29.004Z,804.68
2019-05-18T04:15:29.012Z,804.68
2019-05-18T04:16:29.026Z,804.65
2019-05-18T04:17:29.033Z,804.65
2019-05-18T04:18:29.046Z,804.61
2019-05-18T04:19:44.934Z,804.63
2019-05-18T04:20:29.066Z,804.61
2019-05-18T04:21:29.075Z,804.61
2019-05-18T04:22:29.081Z,804.62
2019-05-18T04:23:29.090Z,804.61
2019-05-18T04:24:29.105Z,804.64
2019-05-18T04:25:29.112Z,804.63
2019-05-18T04:26:29.121Z,804.62
2019-05-18T04:27:29.137Z,804.64
2019-05-18T04:28:29.145Z,804.64
2019-05-18T04:29:29.154Z,804.63
2019-05-18T04:30:29.158Z,804.66
2019-05-18T04:31:32.223Z,804.65
2019-05-18T04:32:29.187Z,804.69
2019-05-18T04:33:29.209Z,804.66
2019-05-18T04:34:29.202Z,804.66
2019-05-18T04:35:29.209Z,804.69
2019-05-18T04:36:29.221Z,804.70
2019-05-18T04:37:29.256Z,804.67
2019-05-18T04:38:29.236Z,804.67
2019-05-18T04:39:29.245Z,804.67
2019-05-18T04:40:29.276Z,804.70
2019-05-18T04:41:29.275Z,804.70
2019-05-18T04:42:29.280Z,804.70
2019-05-18T04:43:29.288Z,804.73
2019-05-18T04:44:29.299Z,804.69
2019-05-18T04:45:29.306Z,804.71
2019-05-18T04:46:29.319Z,804.70
2019-05-18T04:47:29.325Z,804.70
2019-05-18T04:48:29.339Z,804.70
2019-05-18T04:49:29.389Z,804.74
2019-05-18T04:50:29.361Z,804.71
2019-05-18T04:51:29.371Z,804.74
2019-05-18T04:52:29.381Z,804.71
2019-05-18T04:53:29.385Z,804.72
2019-05-18T04:54:29.395Z,804.71
2019-05-18T04:55:29.405Z,804.73
2019-05-18T04:56:29.422Z,804.67
2019-05-18T04:57:29.429Z,804.72
2019-05-18T04:58:29.438Z,804.66
2019-05-18T04:59:29.467Z,804.71
2019-05-18T05:00:29.462Z,804.72
2019-05-18T05:01:29.482Z,804.67
2019-05-18T05:02:29.482Z,804.68
2019-05-18T05:03:29.502Z,804.65
2019-05-18T05:04:29.495Z,804.68
2019-05-18T05:05:29.507Z,804.69
2019-05-18T05:06:29.516Z,804.68
2019-05-18T05:07:29.526Z,804.66
2019-05-18T05:08:29.536Z,804.69
2019-05-18T05:09:29.546Z,804.66
2019-05-18T05:10:29.558Z,804.68
2019-05-18T05:11:29.566Z,804.66
2019-05-18T05:12:29.575Z,804.68
2019-05-18T05:13:29.592Z,804.66
2019-05-18T05:14:29.595Z,804.66
2019-05-18T05:15:29.605Z,804.66
2019-05-18T05:16:29.615Z,804.66
2019-05-18T05:17:29.627Z,804.65
2019-05-18T05:18:29.631Z,804.64
2019-05-18T05:19:29.640Z,804.62
2019-05-18T05:20:29.652Z,804.63
2019-05-18T05:21:29.660Z,804.59
2019-05-18T05:22:29.676Z,804.65
2019-05-18T05:23:29.684Z,804.63
2019-05-18T05:24:29.691Z,804.60
2019-05-18T05:25:29.705Z,804.65
2019-05-18T05:26:29.713Z,804.64
2019-05-18T05:27:29.727Z,804.59
2019-05-18T05:28:29.728Z,804.66
2019-05-18T05:29:29.745Z,804.62
2019-05-18T05:30:29.753Z,804.60
2019-05-18T05:31:29.763Z,804.65
2019-05-18T05:32:29.774Z,804.63
2019-05-18T05:33:29.786Z,804.67
2019-05-18T05:34:29.790Z,804.66
2019-05-18T05:35:29.800Z,804.65
2019-05-18T05:36:29.806Z,804.71
2019-05-18T05:37:29.820Z,804.69
2019-05-18T05:38:29.831Z,804.68
2019-05-18T05:39:29.840Z,804.69
2019-05-18T05:40:29.850Z,804.65
2019-05-18T05:41:29.858Z,804.71
2019-05-18T05:42:29.879Z,804.68
2019-05-18T05:43:29.875Z,804.71
2019-05-18T05:44:29.889Z,804.68
2019-05-18T05:45:29.897Z,804.67
2019-05-18T05:46:29.910Z,804.67
2019-05-18T05:47:29.915Z,804.67
2019-05-18T05:48:29.929Z,804.62
2019-05-18T05:49:29.934Z,804.69
2019-05-18T05:50:35.912Z,804.68
2019-05-18T05:51:29.956Z,804.66
2019-05-18T05:52:29.987Z,804.63
2019-05-18T05:53:29.976Z,804.67
2019-05-18T05:54:29.981Z,804.64
2019-05-18T05:55:29.989Z,804.64
2019-05-18T05:56:30.004Z,804.62
2019-05-18T05:57:30.009Z,804.60
2019-05-18T05:58:30.021Z,804.64
2019-05-18T05:59:30.032Z,804.65
2019-05-18T06:00:30.041Z,804.66
2019-05-18T06:01:30.050Z,804.65
2019-05-18T06:02:30.072Z,804.66
2019-05-18T06:03:30.070Z,804.63
2019-05-18T06:04:30.075Z,804.70
2019-05-18T06:05:30.094Z,804.72
2019-05-18T06:06:30.098Z,804.75
2019-05-18T06:07:30.109Z,804.74
2019-05-18T06:08:30.114Z,804.73
2019-05-18T06:09:30.127Z,804.71
2019-05-18T06:10:30.133Z,804.73
2019-05-18T06:11:30.146Z,804.67
2019-05-18T06:12:30.152Z,804.74
2019-05-18T06:13:30.160Z,804.70
2019-05-18T06:14:30.170Z,804.74
2019-05-18T06:15:30.180Z,804.76
2019-05-18T06:16:30.189Z,804.81
2019-05-18T06:17:30.201Z,804.77
2019-05-18T06:18:30.210Z,804.77
2019-05-18T06:19:30.220Z,804.79
2019-05-18T06:20:30.227Z,804.79
2019-05-18T06:21:30.240Z,804.77
2019-05-18T06:22:30.252Z,804.77
2019-05-18T06:23:30.260Z,804.80
2019-05-18T06:24:30.269Z,804.76
2019-05-18T06:25:34.159Z,804.76
2019-05-18T06:26:30.290Z,804.78
2019-05-18T06:27:30.295Z,804.74
2019-05-18T06:28:30.307Z,804.77
2019-05-18T06:29:30.314Z,804.76
2019-05-18T06:30:30.329Z,804.75
2019-05-18T06:31:30.339Z,804.73
2019-05-18T06:32:30.356Z,804.75
2019-05-18T06:33:30.358Z,804.74
2019-05-18T06:34:30.361Z,804.74
2019-05-18T06:35:30.372Z,804.75
2019-05-18T06:36:30.384Z,804.74
2019-05-18T06:37:30.391Z,804.76
2019-05-18T06:38:30.409Z,804.74
2019-05-18T06:39:30.422Z,804.77
2019-05-18T06:40:30.425Z,804.76
2019-05-18T06:41:30.433Z,804.76
2019-05-18T06:42:30.495Z,804.71
2019-05-18T06:43:30.451Z,804.70
2019-05-18T06:44:30.466Z,804.77
2019-05-18T06:45:30.476Z,804.77
2019-05-18T06:46:30.481Z,804.79
2019-05-18T06:47:30.496Z,804.78
2019-05-18T06:48:30.498Z,804.79
2019-05-18T06:49:30.511Z,804.80
2019-05-18T06:50:30.525Z,804.80
2019-05-18T06:51:30.533Z,804.81
2019-05-18T06:52:30.543Z,804.83
2019-05-18T06:53:30.554Z,804.81
2019-05-18T06:54:30.564Z,804.86
2019-05-18T06:55:30.569Z,804.86
2019-05-18T06:56:30.581Z,804.85
2019-05-18T06:57:30.592Z,804.85
2019-05-18T06:58:30.599Z,804.83
2019-05-18T06:59:30.608Z,804.87
2019-05-18T07:00:30.623Z,804.87
2019-05-18T07:01:30.635Z,804.90
2019-05-18T07:02:30.644Z,804.93
2019-05-18T07:03:30.732Z,804.89
2019-05-18T07:04:30.660Z,804.93
2019-05-18T07:05:30.669Z,804.90
2019-05-18T07:06:30.686Z,804.93
2019-05-18T07:07:30.693Z,804.91
2019-05-18T07:08:30.704Z,804.91
2019-05-18T07:09:30.720Z,804.91
2019-05-18T07:10:30.721Z,804.90
2019-05-18T07:11:30.732Z,804.88
2019-05-18T07:12:30.750Z,804.91
2019-05-18T07:13:30.857Z,804.87
2019-05-18T07:14:30.764Z,804.88
2019-05-18T07:15:30.772Z,804.89
2019-05-18T07:16:30.806Z,804.88
2019-05-18T07:17:30.793Z,804.89
2019-05-18T07:18:30.805Z,804.88
2019-05-18T07:19:30.817Z,804.91
2019-05-18T07:20:30.830Z,804.90
2019-05-18T07:21:30.840Z,804.92
2019-05-18T07:22:30.848Z,804.86
2019-05-18T07:23:30.861Z,804.91
2019-05-18T07:24:30.867Z,804.91
2019-05-18T07:25:30.883Z,804.87
2019-05-18T07:26:30.886Z,804.90
2019-05-18T07:27:30.898Z,804.92
2019-05-18T07:28:30.907Z,804.90
2019-05-18T07:29:30.921Z,804.90
2019-05-18T07:30:30.940Z,804.87
2019-05-18T07:31:30.938Z,804.87
2019-05-18T07:32:30.954Z,804.85
2019-05-18T07:33:30.984Z,804.85
2019-05-18T07:34:30.976Z,804.85
2019-05-18T07:35:30.982Z,804.84
2019-05-18T07:36:30.991Z,804.83
2019-05-18T07:37:31.037Z,804.82
2019-05-18T07:38:31.012Z,804.82
2019-05-18T07:39:31.022Z,804.80
2019-05-18T07:40:31.034Z,804.79
2019-05-18T07:41:45.550Z,804.76
2019-05-18T07:42:31.058Z,804.77
2019-05-18T07:43:31.064Z,804.79
2019-05-18T07:44:31.077Z,804.80
2019-05-18T07:45:31.090Z,804.75
2019-05-18T07:46:31.097Z,804.77
2019-05-18T07:47:31.109Z,804.80
2019-05-18T07:48:31.118Z,804.76
2019-05-18T07:49:31.128Z,804.78
2019-05-18T07:50:31.143Z,804.84
2019-05-18T07:51:37.049Z,804.83
2019-05-18T07:52:31.171Z,804.82
2019-05-18T07:53:31.175Z,804.84
2019-05-18T07:54:31.184Z,804.84
2019-05-18T07:55:31.189Z,804.83
2019-05-18T07:56:31.202Z,804.86
2019-05-18T07:57:31.210Z,804.85
2019-05-18T07:58:31.227Z,804.85
2019-05-18T07:59:31.231Z,804.84
2019-05-18T08:00:31.240Z,804.84
2019-05-18T08:01:31.253Z,804.88
2019-05-18T08:02:31.265Z,804.83
2019-05-18T08:03:31.287Z,804.82
2019-05-18T08:04:31.289Z,804.81
2019-05-18T08:05:31.299Z,804.81
2019-05-18T08:06:31.304Z,804.84
2019-05-18T08:07:31.319Z,804.85
2019-05-18T08:08:31.330Z,804.86
2019-05-18T08:09:31.342Z,804.87
2019-05-18T08:10:31.350Z,804.84
2019-05-18T08:11:31.355Z,804.84
2019-05-18T08:12:31.370Z,804.89
2019-05-18T08:13:31.383Z,804.83
2019-05-18T08:14:31.392Z,804.83
2019-05-18T08:15:31.402Z,804.79
2019-05-18T08:16:31.413Z,804.83
2019-05-18T08:17:31.418Z,804.84
2019-05-18T08:18:31.436Z,804.83
2019-05-18T08:19:31.438Z,804.85
2019-05-18T08:20:31.463Z,804.87
2019-05-18T08:21:31.464Z,804.90
2019-05-18T08:22:31.471Z,804.88
2019-05-18T08:23:31.484Z,804.91
2019-05-18T08:24:31.489Z,804.85
2019-05-18T08:25:31.504Z,804.87
2019-05-18T08:26:31.523Z,804.91
2019-05-18T08:27:31.523Z,804.86
2019-05-18T08:28:31.538Z,804.85
2019-05-18T08:29:31.568Z,804.89
2019-05-18T08:30:31.552Z,804.90
2019-05-18T08:31:31.565Z,804.89
2019-05-18T08:32:31.582Z,804.89
2019-05-18T08:33:31.588Z,804.89
2019-05-18T08:34:31.597Z,804.87
2019-05-18T08:35:31.606Z,804.85
2019-05-18T08:36:31.618Z,804.88
2019-05-18T08:37:31.629Z,804.85
2019-05-18T08:38:31.642Z,804.83
2019-05-18T08:39:31.653Z,804.88
2019-05-18T08:40:31.663Z,804.90
2019-05-18T08:41:31.677Z,804.87
2019-05-18T08:42:31.700Z,804.90
2019-05-18T08:43:31.694Z,804.92
2019-05-18T08:44:31.709Z,804.93
2019-05-18T08:45:31.714Z,804.89
2019-05-18T08:46:31.779Z,804.91
2019-05-18T08:47:31.731Z,804.94
2019-05-18T08:48:31.746Z,804.93
2019-05-18T08:49:31.758Z,804.89
2019-05-18T08:50:31.766Z,804.90
2019-05-18T08:51:31.775Z,804.89
2019-05-18T08:52:31.786Z,804.86
2019-05-18T08:53:31.800Z,804.88
2019-05-18T08:54:31.809Z,804.91
2019-05-18T08:55:31.816Z,804.91
2019-05-18T08:56:31.827Z,804.91
2019-05-18T08:57:31.840Z,804.92
2019-05-18T08:58:31.866Z,804.88
2019-05-18T08:59:31.860Z,804.91
2019-05-18T09:00:31.890Z,804.87
2019-05-18T09:01:31.883Z,804.87
2019-05-18T09:02:31.894Z,804.89
2019-05-18T09:03:31.908Z,804.86
2019-05-18T09:04:31.917Z,804.83
2019-05-18T09:05:31.928Z,804.87
2019-05-18T09:06:31.941Z,804.84
2019-05-18T09:07:31.951Z,804.87
2019-05-18T09:08:31.967Z,804.89
2019-05-18T09:09:31.974Z,804.88
2019-05-18T09:10:31.985Z,804.90
2019-05-18T09:11:32.006Z,804.87
2019-05-18T09:12:32.007Z,804.90
2019-05-18T09:13:32.019Z,804.85
2019-05-18T09:14:32.031Z,804.87
2019-05-18T09:15:32.041Z,804.92
2019-05-18T09:16:32.052Z,804.88
2019-05-18T09:17:32.067Z,804.88
2019-05-18T09:18:32.080Z,804.90
2019-05-18T09:19:32.087Z,804.86
2019-05-18T09:20:32.240Z,804.89
2019-05-18T09:21:32.110Z,804.91
2019-05-18T09:22:32.123Z,804.89
2019-05-18T09:23:32.129Z,804.92
2019-05-18T09:24:32.140Z,804.85
2019-05-18T09:25:32.165Z,804.93
2019-05-18T09:26:32.167Z,804.92
2019-05-18T09:27:32.176Z,804.92
2019-05-18T09:28:32.189Z,804.93
2019-05-18T09:29:32.199Z,804.88
2019-05-18T09:30:32.206Z,804.92
2019-05-18T09:31:32.217Z,804.90
2019-05-18T09:32:32.231Z,804.93
2019-05-18T09:33:32.242Z,804.92
2019-05-18T09:34:32.250Z,804.93
2019-05-18T09:35:32.265Z,804.96
2019-05-18T09:36:32.290Z,804.89
2019-05-18T09:37:32.283Z,804.91
2019-05-18T09:38:33.376Z,804.92
2019-05-18T09:39:32.305Z,804.87
2019-05-18T09:40:32.317Z,804.88
2019-05-18T09:41:32.331Z,804.86
2019-05-18T09:42:32.344Z,804.91
2019-05-18T09:43:32.359Z,804.89
2019-05-18T09:44:32.363Z,804.90
2019-05-18T09:45:32.376Z,804.93
2019-05-18T09:46:32.395Z,804.96
2019-05-18T09:47:32.400Z,804.94
2019-05-18T09:48:32.412Z,805.00
2019-05-18T09:49:32.421Z,804.96
2019-05-18T09:50:32.434Z,805.02
2019-05-18T09:51:32.442Z,804.98
2019-05-18T09:52:44.278Z,805.02
2019-05-18T09:53:32.466Z,805.01
2019-05-18T09:54:32.480Z,805.03
2019-05-18T09:55:32.491Z,805.03
2019-05-18T09:56:32.503Z,805.01
2019-05-18T09:57:32.516Z,805.03
2019-05-18T09:58:32.522Z,805.02
2019-05-18T09:59:32.546Z,805.00
2019-05-18T10:00:38.396Z,805.03
2019-05-18T10:01:32.561Z,805.06
2019-05-18T10:02:32.572Z,805.04
2019-05-18T10:03:32.578Z,805.05
2019-05-18T10:04:32.590Z,805.06
2019-05-18T10:05:32.604Z,805.07
2019-05-18T10:06:32.618Z,805.06
2019-05-18T10:07:32.629Z,805.03
2019-05-18T10:08:32.638Z,805.04
2019-05-18T10:09:38.779Z,805.10
2019-05-18T10:10:33.751Z,805.11
2019-05-18T10:11:38.185Z,805.04
2019-05-18T10:12:32.684Z,805.10
2019-05-18T10:13:32.702Z,805.14
2019-05-18T10:14:32.713Z,805.13
2019-05-18T10:15:32.726Z,805.07
2019-05-18T10:16:32.739Z,805.10
2019-05-18T10:17:32.748Z,805.11
2019-05-18T10:18:32.756Z,805.10
2019-05-18T10:19:32.772Z,805.05
2019-05-18T10:20:32.780Z,805.14
2019-05-18T10:21:32.829Z,805.08
2019-05-18T10:22:32.859Z,805.13
2019-05-18T10:23:32.815Z,805.10
2019-05-18T10:24:32.834Z,805.11
2019-05-18T10:25:32.845Z,805.07
2019-05-18T10:26:32.856Z,805.05
2019-05-18T10:27:32.866Z,805.07
2019-05-18T10:28:32.876Z,805.03
2019-05-18T10:29:32.887Z,805.07
2019-05-18T10:30:32.900Z,805.04
2019-05-18T10:31:32.912Z,805.07
2019-05-18T10:32:32.924Z,805.03
2019-05-18T10:33:32.935Z,805.04
2019-05-18T10:34:32.951Z,805.03
2019-05-18T10:35:32.963Z,805.00
2019-05-18T10:36:32.983Z,805.00
2019-05-18T10:37:32.986Z,805.00
2019-05-18T10:38:33.001Z,805.00
2019-05-18T10:39:33.014Z,805.01
2019-05-18T10:40:33.026Z,805.01
2019-05-18T10:41:33.033Z,805.02
2019-05-18T10:42:33.046Z,805.03
2019-05-18T10:43:33.087Z,805.07
2019-05-18T10:44:33.075Z,805.01
2019-05-18T10:45:33.086Z,805.05
2019-05-18T10:46:33.095Z,805.04
2019-05-18T10:47:33.117Z,805.00
2019-05-18T10:48:33.122Z,805.05
2019-05-18T10:49:33.136Z,805.03
2019-05-18T10:50:33.150Z,805.00
2019-05-18T10:51:33.159Z,805.02
2019-05-18T10:52:33.168Z,805.02
2019-05-18T10:53:33.181Z,804.96
2019-05-18T10:54:33.255Z,804.99
2019-05-18T10:55:33.217Z,804.95
2019-05-18T10:56:33.221Z,805.01
2019-05-18T10:57:33.229Z,805.01
2019-05-18T10:58:33.243Z,804.97
2019-05-18T10:59:33.253Z,805.04
2019-05-18T11:00:33.268Z,805.02
2019-05-18T11:01:33.283Z,805.03
2019-05-18T11:02:33.366Z,804.97
2019-05-18T11:03:33.301Z,805.01
2019-05-18T11:04:33.326Z,805.01
2019-05-18T11:05:33.332Z,805.04
2019-05-18T11:06:33.344Z,805.01
2019-05-18T11:07:33.351Z,805.00
2019-05-18T11:08:33.367Z,804.97
2019-05-18T11:09:33.384Z,805.02
2019-05-18T11:10:33.389Z,805.02
2019-05-18T11:11:33.409Z,804.96
2019-05-18T11:12:33.421Z,805.00
2019-05-18T11:13:33.424Z,805.02
2019-05-18T11:14:33.442Z,804.98
2019-05-18T11:15:33.452Z,804.95
2019-05-18T11:16:33.464Z,804.94
2019-05-18T11:17:33.482Z,805.00
2019-05-18T11:18:33.491Z,804.99
2019-05-18T11:19:33.505Z,805.04
2019-05-18T11:20:33.518Z,805.03
2019-05-18T11:21:33.592Z,805.00
2019-05-18T11:22:33.540Z,805.00
2019-05-18T11:23:43.091Z,805.03
2019-05-18T11:24:33.564Z,805.05
2019-05-18T11:25:33.575Z,805.00
2019-05-18T11:26:33.589Z,805.04
2019-05-18T11:27:33.600Z,805.04
2019-05-18T11:28:33.611Z,805.07
2019-05-18T11:29:33.636Z,805.05
2019-05-18T11:30:33.637Z,805.03
2019-05-18T11:31:33.651Z,805.00
2019-05-18T11:32:33.661Z,805.05
2019-05-18T11:33:33.673Z,805.05
2019-05-18T11:34:33.686Z,805.03
2019-05-18T11:35:33.694Z,805.02
2019-05-18T11:36:33.711Z,805.08
2019-05-18T11:37:33.737Z,805.05
2019-05-18T11:38:33.736Z,805.07
2019-05-18T11:39:33.742Z,805.06
2019-05-18T11:40:33.755Z,805.01
2019-05-18T11:41:33.771Z,805.02
2019-05-18T11:42:33.790Z,805.05
2019-05-18T11:43:33.796Z,804.99
2019-05-18T11:44:33.807Z,805.01
2019-05-18T11:45:33.816Z,805.03
2019-05-18T11:46:33.830Z,805.05
2019-05-18T11:47:33.841Z,805.03
2019-05-18T11:48:33.858Z,805.05
2019-05-18T11:49:33.870Z,805.09
2019-05-18T11:50:33.880Z,805.05
2019-05-18T11:51:33.892Z,805.10
2019-05-18T11:52:33.903Z,805.08
2019-05-18T11:53:33.914Z,805.05
2019-05-18T11:54:33.926Z,805.09
2019-05-18T11:55:33.938Z,805.07
2019-05-18T11:56:33.964Z,805.07
2019-05-18T11:57:33.965Z,805.08
2019-05-18T11:58:33.988Z,805.10
2019-05-18T11:59:33.991Z,805.08
2019-05-18T12:00:34.002Z,805.08
2019-05-18T12:01:34.018Z,805.04
2019-05-18T12:02:34.027Z,805.05
2019-05-18T12:03:34.038Z,805.07
2019-05-18T12:04:34.054Z,805.08
2019-05-18T12:05:34.064Z,805.09
2019-05-18T12:06:34.084Z,805.09
2019-05-18T12:07:34.087Z,805.07
2019-05-18T12:08:34.107Z,805.10
2019-05-18T12:09:34.128Z,805.09
2019-05-18T12:10:34.124Z,805.12
2019-05-18T12:11:34.142Z,805.08
2019-05-18T12:12:34.157Z,805.07
2019-05-18T12:13:34.168Z,805.09
2019-05-18T12:14:34.175Z,805.11
2019-05-18T12:15:34.187Z,805.09
2019-05-18T12:16:34.204Z,805.11
2019-05-18T12:17:34.213Z,805.10
2019-05-18T12:18:34.225Z,805.13
2019-05-18T12:19:34.237Z,805.09
2019-05-18T12:20:34.256Z,805.09
2019-05-18T12:21:34.265Z,805.11
2019-05-18T12:22:34.276Z,805.11
2019-05-18T12:23:34.293Z,805.13
2019-05-18T12:24:34.388Z,805.14
2019-05-18T12:25:34.314Z,805.11
2019-05-18T12:26:34.373Z,805.10
2019-05-18T12:27:34.354Z,805.10
2019-05-18T12:28:34.351Z,805.10